sensor_id;sensor_type;location;lat;lon;timestamp;temperature;humidity
40556;DHT22;26250;45.422;11.100;2023-05-07T18:00:13;25.70;68.70
40556;DHT22;26250;45.422;11.100;2023-05-07T18:02:40;25.60;69.60
40556;DHT22;26250;45.422;11.100;2023-05-07T18:05:07;25.50;71.60
40556;DHT22;26250;45.422;11.100;2023-05-07T18:07:35;25.40;72.80
40556;DHT22;26250;45.422;11.100;2023-05-07T18:10:02;25.30;74.00
40556;DHT22;26250;45.422;11.100;2023-05-07T18:12:29;25.30;74.40
40556;DHT22;26250;45.422;11.100;2023-05-07T18:14:56;25.20;75.00
40556;DHT22;26250;45.422;11.100;2023-05-07T18:17:22;25.20;75.30
40556;DHT22;26250;45.422;11.100;2023-05-07T18:19:50;25.20;75.10
40556;DHT22;26250;45.422;11.100;2023-05-07T18:22:20;25.10;75.50
40556;DHT22;26250;45.422;11.100;2023-05-07T18:24:48;25.10;76.80
40556;DHT22;26250;45.422;11.100;2023-05-07T18:27:15;24.90;77.60
40556;DHT22;26250;45.422;11.100;2023-05-07T18:29:41;24.80;77.90
40556;DHT22;26250;45.422;11.100;2023-05-07T18:32:08;24.90;77.50
40556;DHT22;26250;45.422;11.100;2023-05-07T18:34:35;24.80;77.50
40556;DHT22;26250;45.422;11.100;2023-05-07T18:37:02;24.80;78.80
40556;DHT22;26250;45.422;11.100;2023-05-07T18:39:30;24.80;79.10
40556;DHT22;26250;45.422;11.100;2023-05-07T18:42:00;24.60;80.40
40556;DHT22;26250;45.422;11.100;2023-05-07T18:44:27;24.60;80.40
40556;DHT22;26250;45.422;11.100;2023-05-07T18:46:54;24.50;81.30
40556;DHT22;26250;45.422;11.100;2023-05-07T18:49:20;24.30;81.80
40556;DHT22;26250;45.422;11.100;2023-05-07T18:51:48;24.30;81.20
40556;DHT22;26250;45.422;11.100;2023-05-07T18:54:15;24.20;81.20
40556;DHT22;26250;45.422;11.100;2023-05-07T18:56:42;24.20;82.20
40556;DHT22;26250;45.422;11.100;2023-05-07T18:59:09;24.00;83.00
40556;DHT22;26250;45.422;11.100;2023-05-07T19:01:35;23.90;83.20
40556;DHT22;26250;45.422;11.100;2023-05-07T19:04:02;23.90;82.80
40556;DHT22;26250;45.422;11.100;2023-05-07T19:06:29;23.90;81.80
40556;DHT22;26250;45.422;11.100;2023-05-07T19:08:59;23.90;81.80
40556;DHT22;26250;45.422;11.100;2023-05-07T19:11:26;23.80;81.40
40556;DHT22;26250;45.422;11.100;2023-05-07T19:13:55;23.90;81.20
40556;DHT22;26250;45.422;11.100;2023-05-07T19:16:22;23.90;81.00
40556;DHT22;26250;45.422;11.100;2023-05-07T19:18:50;23.90;80.90
40556;DHT22;26250;45.422;11.100;2023-05-07T19:21:16;23.90;81.60
40556;DHT22;26250;45.422;11.100;2023-05-07T19:23:43;23.90;80.80
40556;DHT22;26250;45.422;11.100;2023-05-07T19:26:11;23.90;80.30
40556;DHT22;26250;45.422;11.100;2023-05-07T19:28:38;23.90;80.60
40556;DHT22;26250;45.422;11.100;2023-05-07T19:31:21;23.90;80.90
40556;DHT22;26250;45.422;11.100;2023-05-07T19:33:48;23.90;80.50
40556;DHT22;26250;45.422;11.100;2023-05-07T19:36:15;23.90;80.30
40556;DHT22;26250;45.422;11.100;2023-05-07T19:38:43;23.90;79.90
40556;DHT22;26250;45.422;11.100;2023-05-07T19:41:10;23.80;80.30
40556;DHT22;26250;45.422;11.100;2023-05-07T19:43:38;23.80;81.70
40556;DHT22;26250;45.422;11.100;2023-05-07T19:46:05;23.80;81.50
40556;DHT22;26250;45.422;11.100;2023-05-07T19:48:32;23.80;81.90
40556;DHT22;26250;45.422;11.100;2023-05-07T19:50:59;23.80;81.40
40556;DHT22;26250;45.422;11.100;2023-05-07T19:53:26;23.60;81.10
40556;DHT22;26250;45.422;11.100;2023-05-07T19:56:06;23.50;81.70
40556;DHT22;26250;45.422;11.100;2023-05-07T19:58:34;23.50;81.40
40556;DHT22;26250;45.422;11.100;2023-05-07T20:01:02;23.50;81.20
40556;DHT22;26250;45.422;11.100;2023-05-07T20:03:33;23.60;81.60
40556;DHT22;26250;45.422;11.100;2023-05-07T20:06:00;23.60;82.00
